sensor_id;sensor_type;location;lat;lon;timestamp;pressure;altitude;pressure_sealevel;temperature;humidity
50672;BME280;46021;55.882;37.654;2023-05-10T00:01:53;100540.31;;;7.16;47.12
50672;BME280;46021;55.882;37.654;2023-05-10T00:04:21;100542.94;;;7.13;48.06
50672;BME280;46021;55.882;37.654;2023-05-10T00:06:52;100536.06;;;7.06;48.04
50672;BME280;46021;55.882;37.654;2023-05-10T00:09:20;100527.41;;;7.02;46.89
50672;BME280;46021;55.882;37.654;2023-05-10T00:11:47;100522.25;;;6.99;46.96
50672;BME280;46021;55.882;37.654;2023-05-10T00:14:14;100522.25;;;7.05;46.20
50672;BME280;46021;55.882;37.654;2023-05-10T00:16:41;100533.44;;;7.12;46.40
50672;BME280;46021;55.882;37.654;2023-05-10T00:19:09;100538.59;;;7.16;46.12
50672;BME280;46021;55.882;37.654;2023-05-10T00:21:37;100530.81;;;7.18;45.68
50672;BME280;46021;55.882;37.654;2023-05-10T00:24:05;100535.97;;;7.21;46.00
50672;BME280;46021;55.882;37.654;2023-05-10T00:26:32;100542.88;;;7.22;46.53
50672;BME280;46021;55.882;37.654;2023-05-10T00:29:00;100535.97;;;7.19;46.53
50672;BME280;46021;55.882;37.654;2023-05-10T00:31:27;100536.88;;;7.14;46.77
50672;BME280;46021;55.882;37.654;2023-05-10T00:33:54;100540.31;;;7.19;47.48
50672;BME280;46021;55.882;37.654;2023-05-10T00:36:21;100547.25;;;7.15;47.52
50672;BME280;46021;55.882;37.654;2023-05-10T00:38:50;100544.66;;;7.12;48.47
50672;BME280;46021;55.882;37.654;2023-05-10T00:41:17;100542.09;;;7.08;48.03
50672;BME280;46021;55.882;37.654;2023-05-10T00:43:46;100548.16;;;7.03;48.54
50672;BME280;46021;55.882;37.654;2023-05-10T00:46:14;100548.16;;;7.02;48.22
50672;BME280;46021;55.882;37.654;2023-05-10T00:48:41;100542.13;;;6.98;48.25
50672;BME280;46021;55.882;37.654;2023-05-10T00:51:08;100549.03;;;6.96;48.41
50672;BME280;46021;55.882;37.654;2023-05-10T00:53:35;100547.34;;;6.92;49.29
50672;BME280;46021;55.882;37.654;2023-05-10T00:56:05;100546.47;;;6.89;49.35
50672;BME280;46021;55.882;37.654;2023-05-10T00:58:32;100538.69;;;6.87;49.34
50672;BME280;46021;55.882;37.654;2023-05-10T01:01:00;100538.69;;;6.87;48.95
50672;BME280;46021;55.882;37.654;2023-05-10T01:03:28;100535.25;;;6.88;49.13
50672;BME280;46021;55.882;37.654;2023-05-10T01:05:56;100532.63;;;6.90;49.60
50672;BME280;46021;55.882;37.654;2023-05-10T01:08:23;100533.47;;;6.93;49.97
50672;BME280;46021;55.882;37.654;2023-05-10T01:10:51;100536.09;;;6.90;49.36
50672;BME280;46021;55.882;37.654;2023-05-10T01:13:30;100540.44;;;6.88;49.08
50672;BME280;46021;55.882;37.654;2023-05-10T01:15:59;100536.09;;;6.89;49.21
50672;BME280;46021;55.882;37.654;2023-05-10T01:18:29;100536.97;;;6.88;50.20
50672;BME280;46021;55.882;37.654;2023-05-10T01:21:06;100536.97;;;6.86;50.37
50672;BME280;46021;55.882;37.654;2023-05-10T01:26:58;100540.44;;;6.82;50.81
50672;BME280;46021;55.882;37.654;2023-05-10T01:30:03;100541.31;;;6.79;52.21
50672;BME280;46021;55.882;37.654;2023-05-10T01:32:36;100538.75;;;6.75;50.88
50672;BME280;46021;55.882;37.654;2023-05-10T01:35:12;100538.75;;;6.72;50.51
50672;BME280;46021;55.882;37.654;2023-05-10T01:37:46;100536.16;;;6.70;50.63
50672;BME280;46021;55.882;37.654;2023-05-10T01:40:19;100537.00;;;6.71;50.42
50672;BME280;46021;55.882;37.654;2023-05-10T01:42:50;100538.75;;;6.70;51.02
50672;BME280;46021;55.882;37.654;2023-05-10T01:45:24;100534.41;;;6.72;50.85
50672;BME280;46021;55.882;37.654;2023-05-10T01:48:01;100528.38;;;6.73;50.92
50672;BME280;46021;55.882;37.654;2023-05-10T01:50:32;100524.06;;;6.72;50.84
50672;BME280;46021;55.882;37.654;2023-05-10T01:53:02;100525.78;;;6.75;51.13
50672;BME280;46021;55.882;37.654;2023-05-10T01:55:35;100530.97;;;6.73;51.61
50672;BME280;46021;55.882;37.654;2023-05-10T01:58:09;100524.06;;;6.68;51.86
50672;BME280;46021;55.882;37.654;2023-05-10T02:00:40;100527.50;;;6.65;52.39
50672;BME280;46021;55.882;37.654;2023-05-10T02:03:12;100524.06;;;6.64;50.95
50672;BME280;46021;55.882;37.654;2023-05-10T02:05:41;100516.31;;;6.68;50.32
50672;BME280;46021;55.882;37.654;2023-05-10T02:08:10;100522.34;;;6.71;50.37
50672;BME280;46021;55.882;37.654;2023-05-10T02:10:39;100519.72;;;6.79;50.37
50672;BME280;46021;55.882;37.654;2023-05-10T02:13:07;100520.59;;;6.82;49.97
50672;BME280;46021;55.882;37.654;2023-05-10T02:15:36;100521.41;;;6.86;49.47
50672;BME280;46021;55.882;37.654;2023-05-10T02:18:05;100516.22;;;6.89;49.60
50672;BME280;46021;55.882;37.654;2023-05-10T02:20:34;100520.56;;;6.90;50.06
50672;BME280;46021;55.882;37.654;2023-05-10T02:23:03;100523.97;;;6.95;49.77
50672;BME280;46021;55.882;37.654;2023-05-10T02:25:31;100522.22;;;6.97;50.13
50672;BME280;46021;55.882;37.654;2023-05-10T02:28:02;100519.66;;;6.97;49.87
50672;BME280;46021;55.882;37.654;2023-05-10T02:30:31;100512.75;;;6.96;50.12
50672;BME280;46021;55.882;37.654;2023-05-10T02:32:59;100512.75;;;6.96;50.02
50672;BME280;46021;55.882;37.654;2023-05-10T02:35:28;100511.88;;;6.97;50.10
50672;BME280;46021;55.882;37.654;2023-05-10T02:37:58;100510.16;;;6.99;50.00
50672;BME280;46021;55.882;37.654;2023-05-10T02:40:27;100504.09;;;7.03;50.12
50672;BME280;46021;55.882;37.654;2023-05-10T02:42:56;100510.97;;;7.08;50.22
50672;BME280;46021;55.882;37.654;2023-05-10T02:45:28;100505.78;;;7.11;50.97
50672;BME280;46021;55.882;37.654;2023-05-10T02:47:56;100503.16;;;7.12;50.59
50672;BME280;46021;55.882;37.654;2023-05-10T02:50:27;100502.31;;;7.15;50.34
50672;BME280;46021;55.882;37.654;2023-05-10T02:53:01;100500.56;;;7.17;50.72
50672;BME280;46021;55.882;37.654;2023-05-10T02:55:35;100497.94;;;7.21;50.07
50672;BME280;46021;55.882;37.654;2023-05-10T02:58:03;100499.69;;;7.24;50.62
50672;BME280;46021;55.882;37.654;2023-05-10T03:00:31;100505.69;;;7.29;51.22
50672;BME280;46021;55.882;37.654;2023-05-10T03:02:58;100503.94;;;7.31;50.97
50672;BME280;46021;55.882;37.654;2023-05-10T03:05:27;100501.34;;;7.34;51.07
50672;BME280;46021;55.882;37.654;2023-05-10T03:07:56;100502.19;;;7.33;51.61
50672;BME280;46021;55.882;37.654;2023-05-10T03:10:27;100504.78;;;7.33;51.69
50672;BME280;46021;55.882;37.654;2023-05-10T03:13:05;100502.19;;;7.33;50.84
50672;BME280;46021;55.882;37.654;2023-05-10T03:15:40;100499.59;;;7.36;49.53
50672;BME280;46021;55.882;37.654;2023-05-10T03:18:12;100498.72;;;7.40;49.49
50672;BME280;46021;55.882;37.654;2023-05-10T03:20:43;100502.16;;;7.46;49.85
50672;BME280;46021;55.882;37.654;2023-05-10T03:23:21;100493.47;;;7.53;50.08
50672;BME280;46021;55.882;37.654;2023-05-10T03:25:52;100496.00;;;7.59;49.74
50672;BME280;46021;55.882;37.654;2023-05-10T03:28:20;100494.25;;;7.64;49.74
50672;BME280;46021;55.882;37.654;2023-05-10T03:30:48;100487.28;;;7.69;49.40
50672;BME280;46021;55.882;37.654;2023-05-10T03:33:16;100495.03;;;7.75;48.89
50672;BME280;46021;55.882;37.654;2023-05-10T03:35:45;100499.31;;;7.81;49.45
50672;BME280;46021;55.882;37.654;2023-05-10T03:38:13;100496.63;;;7.92;49.09
50672;BME280;46021;55.882;37.654;2023-05-10T03:40:41;100513.03;;;7.98;49.49
50672;BME280;46021;55.882;37.654;2023-05-10T03:43:09;100498.28;;;8.04;49.47
50672;BME280;46021;55.882;37.654;2023-05-10T03:45:36;100501.66;;;8.10;49.65
50672;BME280;46021;55.882;37.654;2023-05-10T03:48:04;100501.63;;;8.16;49.13
50672;BME280;46021;55.882;37.654;2023-05-10T03:50:31;100487.69;;;8.24;49.18
50672;BME280;46021;55.882;37.654;2023-05-10T03:52:58;100494.56;;;8.34;48.96
50672;BME280;46021;55.882;37.654;2023-05-10T03:55:27;100485.84;;;8.36;49.02
50672;BME280;46021;55.882;37.654;2023-05-10T03:57:55;100496.16;;;8.49;47.94
50672;BME280;46021;55.882;37.654;2023-05-10T04:00:24;100491.75;;;8.55;47.65
50672;BME280;46021;55.882;37.654;2023-05-10T04:02:54;100494.28;;;8.62;47.44
50672;BME280;46021;55.882;37.654;2023-05-10T04:05:22;100496.78;;;8.69;47.23
50672;BME280;46021;55.882;37.654;2023-05-10T04:07:51;100494.09;;;8.77;47.19
50672;BME280;46021;55.882;37.654;2023-05-10T04:10:19;100495.75;;;8.84;46.94
50672;BME280;46021;55.882;37.654;2023-05-10T04:12:46;100481.81;;;8.91;46.39
50672;BME280;46021;55.882;37.654;2023-05-10T04:15:14;100482.56;;;9.01;46.08
50672;BME280;46021;55.882;37.654;2023-05-10T04:17:42;100486.78;;;9.10;45.78
50672;BME280;46021;55.882;37.654;2023-05-10T04:20:10;100488.34;;;9.23;45.49
50672;BME280;46021;55.882;37.654;2023-05-10T04:22:38;100480.38;;;9.35;45.88
50672;BME280;46021;55.882;37.654;2023-05-10T04:25:06;100482.81;;;9.48;45.74
50672;BME280;46021;55.882;37.654;2023-05-10T04:27:33;100478.31;;;9.59;45.53
50672;BME280;46021;55.882;37.654;2023-05-10T04:30:00;100478.16;;;9.68;45.29
50672;BME280;46021;55.882;37.654;2023-05-10T04:32:32;100472.00;;;9.75;44.77
50672;BME280;46021;55.882;37.654;2023-05-10T04:35:01;100466.56;;;9.88;44.64
50672;BME280;46021;55.882;37.654;2023-05-10T04:37:29;100468.03;;;10.04;44.28
50672;BME280;46021;55.882;37.654;2023-05-10T04:39:56;100474.78;;;10.16;43.40
50672;BME280;46021;55.882;37.654;2023-05-10T04:42:25;100472.88;;;10.26;43.33
50672;BME280;46021;55.882;37.654;2023-05-10T04:44:52;100463.91;;;10.42;43.14
50672;BME280;46021;55.882;37.654;2023-05-10T04:47:19;100473.25;;;10.54;42.68
50672;BME280;46021;55.882;37.654;2023-05-10T04:49:46;100468.72;;;10.62;42.20
50672;BME280;46021;55.882;37.654;2023-05-10T04:52:15;100461.56;;;10.73;41.87
50672;BME280;46021;55.882;37.654;2023-05-10T04:54:43;100454.53;;;10.77;42.04
50672;BME280;46021;55.882;37.654;2023-05-10T04:57:10;100452.53;;;10.91;41.89
50672;BME280;46021;55.882;37.654;2023-05-10T04:59:37;100453.03;;;11.07;41.59
50672;BME280;46021;55.882;37.654;2023-05-10T05:02:04;100453.63;;;11.20;41.09
50672;BME280;46021;55.882;37.654;2023-05-10T05:04:32;100455.03;;;11.37;40.60
50672;BME280;46021;55.882;37.654;2023-05-10T05:07:01;100451.31;;;11.45;40.40
50672;BME280;46021;55.882;37.654;2023-05-10T05:09:29;100457.94;;;11.60;40.03
50672;BME280;46021;55.882;37.654;2023-05-10T05:11:57;100442.06;;;11.69;39.80
50672;BME280;46021;55.882;37.654;2023-05-10T05:14:25;100443.63;;;11.77;39.34
50672;BME280;46021;55.882;37.654;2023-05-10T05:16:52;100448.44;;;11.95;39.41
50672;BME280;46021;55.882;37.654;2023-05-10T05:19:19;100454.03;;;12.16;38.95
50672;BME280;46021;55.882;37.654;2023-05-10T05:21:47;100440.72;;;12.25;38.48
50672;BME280;46021;55.882;37.654;2023-05-10T05:24:14;100452.44;;;12.41;38.14
50672;BME280;46021;55.882;37.654;2023-05-10T05:26:42;100446.09;;;12.52;37.50
50672;BME280;46021;55.882;37.654;2023-05-10T05:29:09;100441.63;;;12.55;36.48
50672;BME280;46021;55.882;37.654;2023-05-10T05:31:36;100441.50;;;12.60;36.30
50672;BME280;46021;55.882;37.654;2023-05-10T05:34:04;100437.03;;;12.63;35.72
50672;BME280;46021;55.882;37.654;2023-05-10T05:36:31;100435.97;;;12.71;35.65
50672;BME280;46021;55.882;37.654;2023-05-10T05:38:58;100437.63;;;12.73;34.91
50672;BME280;46021;55.882;37.654;2023-05-10T05:41:25;100434.19;;;12.71;34.20
50672;BME280;46021;55.882;37.654;2023-05-10T05:43:54;100432.44;;;12.72;33.44
50672;BME280;46021;55.882;37.654;2023-05-10T05:46:21;100434.81;;;12.79;33.93
50672;BME280;46021;55.882;37.654;2023-05-10T05:48:48;100430.28;;;12.86;33.73
50672;BME280;46021;55.882;37.654;2023-05-10T05:51:15;100425.59;;;12.97;33.35
50672;BME280;46021;55.882;37.654;2023-05-10T05:53:43;100426.97;;;13.09;33.14
50672;BME280;46021;55.882;37.654;2023-05-10T05:56:10;100417.44;;;13.08;32.39
50672;BME280;46021;55.882;37.654;2023-05-10T05:58:37;100420.53;;;13.19;32.68
50672;BME280;46021;55.882;37.654;2023-05-10T06:01:05;100418.09;;;13.15;32.28
50672;BME280;46021;55.882;37.654;2023-05-10T06:03:33;100420.84;;;13.10;31.63
50672;BME280;46021;55.882;37.654;2023-05-10T06:06:00;100415.41;;;13.16;31.88
50672;BME280;46021;55.882;37.654;2023-05-10T06:08:27;100414.56;;;13.16;31.64
50672;BME280;46021;55.882;37.654;2023-05-10T06:10:54;100414.22;;;13.26;31.70
50672;BME280;46021;55.882;37.654;2023-05-10T06:13:21;100409.66;;;13.35;31.30
50672;BME280;46021;55.882;37.654;2023-05-10T06:15:49;100422.59;;;13.39;31.55
50672;BME280;46021;55.882;37.654;2023-05-10T06:18:18;100416.09;;;13.51;31.39
50672;BME280;46021;55.882;37.654;2023-05-10T06:20:45;100412.41;;;13.57;31.38
50672;BME280;46021;55.882;37.654;2023-05-10T06:23:12;100411.41;;;13.61;31.11
50672;BME280;46021;55.882;37.654;2023-05-10T06:25:39;100408.34;;;13.75;30.78
50672;BME280;46021;55.882;37.654;2023-05-10T06:28:06;100406.22;;;13.86;30.95
50672;BME280;46021;55.882;37.654;2023-05-10T06:30:33;100410.38;;;13.93;30.54
50672;BME280;46021;55.882;37.654;2023-05-10T06:33:00;100397.13;;;13.96;30.71
50672;BME280;46021;55.882;37.654;2023-05-10T06:35:29;100402.00;;;14.07;30.46
50672;BME280;46021;55.882;37.654;2023-05-10T06:37:57;100404.19;;;14.19;30.24
50672;BME280;46021;55.882;37.654;2023-05-10T06:40:24;100403.66;;;14.35;30.15
50672;BME280;46021;55.882;37.654;2023-05-10T06:42:51;100403.84;;;14.54;30.19
50672;BME280;46021;55.882;37.654;2023-05-10T06:45:19;100401.34;;;14.74;30.10
50672;BME280;46021;55.882;37.654;2023-05-10T06:47:46;100401.25;;;14.77;29.71
50672;BME280;46021;55.882;37.654;2023-05-10T06:50:13;100394.16;;;14.79;29.65
50672;BME280;46021;55.882;37.654;2023-05-10T06:52:42;100401.34;;;14.74;29.80
50672;BME280;46021;55.882;37.654;2023-05-10T06:55:10;100395.56;;;14.66;29.60
50672;BME280;46021;55.882;37.654;2023-05-10T06:57:37;100398.06;;;14.69;29.55
50672;BME280;46021;55.882;37.654;2023-05-10T07:00:05;100395.22;;;14.75;29.60
50672;BME280;46021;55.882;37.654;2023-05-10T07:02:34;100395.31;;;14.96;29.94
50672;BME280;46021;55.882;37.654;2023-05-10T07:05:01;100406.94;;;15.12;29.84
50672;BME280;46021;55.882;37.654;2023-05-10T07:07:31;100396.03;;;15.21;29.62
50672;BME280;46021;55.882;37.654;2023-05-10T07:10:00;100401.63;;;15.36;29.67
50672;BME280;46021;55.882;37.654;2023-05-10T07:12:30;100402.56;;;15.35;29.28
50672;BME280;46021;55.882;37.654;2023-05-10T07:14:57;100406.13;;;15.54;29.59
50672;BME280;46021;55.882;37.654;2023-05-10T07:17:24;100405.44;;;15.71;29.18
50672;BME280;46021;55.882;37.654;2023-05-10T07:19:51;100398.56;;;15.89;28.87
50672;BME280;46021;55.882;37.654;2023-05-10T07:22:19;100403.66;;;16.14;28.94
50672;BME280;46021;55.882;37.654;2023-05-10T07:24:46;100397.16;;;16.42;29.03
50672;BME280;46021;55.882;37.654;2023-05-10T07:27:14;100386.09;;;16.73;28.31
50672;BME280;46021;55.882;37.654;2023-05-10T07:29:41;100388.09;;;17.06;27.92
50672;BME280;46021;55.882;37.654;2023-05-10T07:32:09;100379.00;;;17.13;28.04
50672;BME280;46021;55.882;37.654;2023-05-10T07:34:36;100379.72;;;16.98;27.23
50672;BME280;46021;55.882;37.654;2023-05-10T07:37:03;100380.84;;;17.11;27.43
50672;BME280;46021;55.882;37.654;2023-05-10T07:39:31;100388.78;;;17.29;27.51
50672;BME280;46021;55.882;37.654;2023-05-10T07:41:58;100379.22;;;17.45;26.87
50672;BME280;46021;55.882;37.654;2023-05-10T07:44:27;100385.59;;;17.59;26.96
50672;BME280;46021;55.882;37.654;2023-05-10T07:46:54;100377.88;;;17.90;26.83
50672;BME280;46021;55.882;37.654;2023-05-10T07:49:22;100376.53;;;18.17;26.99
50672;BME280;46021;55.882;37.654;2023-05-10T07:51:50;100365.84;;;18.36;26.22
50672;BME280;46021;55.882;37.654;2023-05-10T07:54:17;100374.69;;;18.35;26.49
50672;BME280;46021;55.882;37.654;2023-05-10T07:56:44;100368.50;;;18.36;26.06
50672;BME280;46021;55.882;37.654;2023-05-10T07:59:15;100372.84;;;18.19;26.01
50672;BME280;46021;55.882;37.654;2023-05-10T08:01:44;100371.06;;;17.67;26.00
50672;BME280;46021;55.882;37.654;2023-05-10T08:04:12;100370.28;;;17.65;26.38
50672;BME280;46021;55.882;37.654;2023-05-10T08:06:39;100355.75;;;17.58;26.58
50672;BME280;46021;55.882;37.654;2023-05-10T08:09:06;100367.00;;;17.62;25.71
50672;BME280;46021;55.882;37.654;2023-05-10T08:11:34;100370.53;;;17.43;26.11
50672;BME280;46021;55.882;37.654;2023-05-10T08:14:01;100359.03;;;17.27;25.90
50672;BME280;46021;55.882;37.654;2023-05-10T08:16:28;100353.94;;;16.86;25.82
50672;BME280;46021;55.882;37.654;2023-05-10T08:18:57;100355.66;;;16.49;25.44
50672;BME280;46021;55.882;37.654;2023-05-10T08:21:24;100344.31;;;16.28;26.10
50672;BME280;46021;55.882;37.654;2023-05-10T08:23:51;100351.56;;;16.02;27.02
50672;BME280;46021;55.882;37.654;2023-05-10T08:26:18;100339.94;;;15.87;26.95
50672;BME280;46021;55.882;37.654;2023-05-10T08:28:46;100346.00;;;15.89;26.84
50672;BME280;46021;55.882;37.654;2023-05-10T08:31:13;100346.88;;;15.90;26.88
50672;BME280;46021;55.882;37.654;2023-05-10T08:33:40;100339.44;;;15.79;27.36
50672;BME280;46021;55.882;37.654;2023-05-10T08:36:09;100333.78;;;15.88;27.54
50672;BME280;46021;55.882;37.654;2023-05-10T08:38:36;100342.44;;;15.90;27.05
50672;BME280;46021;55.882;37.654;2023-05-10T08:41:05;100335.38;;;16.11;27.06
50672;BME280;46021;55.882;37.654;2023-05-10T08:43:33;100329.38;;;16.28;26.67
50672;BME280;46021;55.882;37.654;2023-05-10T08:46:05;100316.22;;;16.66;26.26
50672;BME280;46021;55.882;37.654;2023-05-10T08:48:34;100332.72;;;17.62;25.62
50672;BME280;46021;55.882;37.654;2023-05-10T08:51:03;100331.31;;;19.04;25.19
50672;BME280;46021;55.882;37.654;2023-05-10T08:53:33;100320.94;;;20.63;24.26
50672;BME280;46021;55.882;37.654;2023-05-10T08:56:02;100304.78;;;22.01;22.79
50672;BME280;46021;55.882;37.654;2023-05-10T08:58:30;100320.44;;;23.41;22.36
50672;BME280;46021;55.882;37.654;2023-05-10T09:00:57;100313.59;;;24.52;21.55
50672;BME280;46021;55.882;37.654;2023-05-10T09:03:26;100308.44;;;25.90;20.72
50672;BME280;46021;55.882;37.654;2023-05-10T09:05:53;100309.75;;;25.75;18.07
50672;BME280;46021;55.882;37.654;2023-05-10T09:08:23;100310.69;;;24.44;18.51
50672;BME280;46021;55.882;37.654;2023-05-10T09:10:53;100302.78;;;22.54;17.81
50672;BME280;46021;55.882;37.654;2023-05-10T09:13:22;100300.00;;;21.28;18.58
50672;BME280;46021;55.882;37.654;2023-05-10T09:15:49;100299.84;;;20.33;19.83
50672;BME280;46021;55.882;37.654;2023-05-10T09:18:17;100297.69;;;19.82;20.38
50672;BME280;46021;55.882;37.654;2023-05-10T09:20:44;100297.06;;;19.63;21.06
50672;BME280;46021;55.882;37.654;2023-05-10T09:23:11;100284.81;;;20.90;21.83
50672;BME280;46021;55.882;37.654;2023-05-10T09:25:40;100288.03;;;22.50;21.14
50672;BME280;46021;55.882;37.654;2023-05-10T09:28:09;100289.03;;;23.68;20.25
50672;BME280;46021;55.882;37.654;2023-05-10T09:30:37;100278.81;;;23.86;18.95
50672;BME280;46021;55.882;37.654;2023-05-10T09:33:05;100278.72;;;24.56;19.26
50672;BME280;46021;55.882;37.654;2023-05-10T09:35:32;100268.41;;;24.95;18.38
50672;BME280;46021;55.882;37.654;2023-05-10T09:38:02;100272.72;;;25.07;18.34
50672;BME280;46021;55.882;37.654;2023-05-10T09:40:29;100270.31;;;25.04;18.35
50672;BME280;46021;55.882;37.654;2023-05-10T09:42:58;100260.84;;;24.67;17.83
50672;BME280;46021;55.882;37.654;2023-05-10T09:45:27;100251.28;;;24.42;17.47
50672;BME280;46021;55.882;37.654;2023-05-10T09:47:55;100257.88;;;24.27;17.98
50672;BME280;46021;55.882;37.654;2023-05-10T09:50:23;100254.50;;;25.12;18.29
50672;BME280;46021;55.882;37.654;2023-05-10T09:52:52;100253.97;;;26.02;17.88
50672;BME280;46021;55.882;37.654;2023-05-10T09:55:22;100255.34;;;25.97;17.48
50672;BME280;46021;55.882;37.654;2023-05-10T09:57:58;100256.66;;;25.81;17.10
50672;BME280;46021;55.882;37.654;2023-05-10T10:00:27;100252.16;;;24.98;16.84
50672;BME280;46021;55.882;37.654;2023-05-10T10:02:55;100250.59;;;24.06;17.87
50672;BME280;46021;55.882;37.654;2023-05-10T10:05:28;100259.00;;;21.85;18.56
50672;BME280;46021;55.882;37.654;2023-05-10T10:07:56;100260.81;;;21.46;19.53
50672;BME280;46021;55.882;37.654;2023-05-10T10:10:24;100256.31;;;20.93;19.23
50672;BME280;46021;55.882;37.654;2023-05-10T10:12:51;100245.41;;;20.71;19.61
50672;BME280;46021;55.882;37.654;2023-05-10T10:15:20;100247.00;;;20.32;20.21
50672;BME280;46021;55.882;37.654;2023-05-10T10:17:50;100249.03;;;19.85;20.36
50672;BME280;46021;55.882;37.654;2023-05-10T10:20:18;100237.38;;;19.59;20.39
50672;BME280;46021;55.882;37.654;2023-05-10T10:22:46;100246.41;;;19.40;20.92
50672;BME280;46021;55.882;37.654;2023-05-10T10:25:15;100246.75;;;19.34;20.86
50672;BME280;46021;55.882;37.654;2023-05-10T10:27:46;100243.81;;;19.24;20.88
50672;BME280;46021;55.882;37.654;2023-05-10T10:30:23;100247.09;;;19.14;21.37
50672;BME280;46021;55.882;37.654;2023-05-10T10:33:18;100234.63;;;18.38;21.58
50672;BME280;46021;55.882;37.654;2023-05-10T10:35:57;100240.41;;;18.28;22.16
50672;BME280;46021;55.882;37.654;2023-05-10T10:38:25;100245.63;;;18.46;21.45
50672;BME280;46021;55.882;37.654;2023-05-10T10:41:02;100240.84;;;18.53;22.41
50672;BME280;46021;55.882;37.654;2023-05-10T10:43:29;100243.13;;;18.75;22.50
50672;BME280;46021;55.882;37.654;2023-05-10T10:46:13;100234.34;;;18.90;22.10
50672;BME280;46021;55.882;37.654;2023-05-10T10:48:47;100238.31;;;18.83;22.31
50672;BME280;46021;55.882;37.654;2023-05-10T10:51:15;100237.78;;;18.60;22.46
50672;BME280;46021;55.882;37.654;2023-05-10T10:53:43;100231.47;;;18.63;22.34
50672;BME280;46021;55.882;37.654;2023-05-10T10:56:12;100232.16;;;18.66;22.84
50672;BME280;46021;55.882;37.654;2023-05-10T10:58:41;100228.66;;;18.82;22.79
50672;BME280;46021;55.882;37.654;2023-05-10T11:01:11;100223.78;;;18.90;22.30
50672;BME280;46021;55.882;37.654;2023-05-10T11:03:39;100220.56;;;18.85;22.65
50672;BME280;46021;55.882;37.654;2023-05-10T11:06:07;100223.38;;;18.50;22.29
50672;BME280;46021;55.882;37.654;2023-05-10T11:08:41;100210.78;;;18.23;22.69
50672;BME280;46021;55.882;37.654;2023-05-10T11:11:14;100210.66;;;17.93;23.19
50672;BME280;46021;55.882;37.654;2023-05-10T11:13:43;100210.16;;;17.69;23.36
50672;BME280;46021;55.882;37.654;2023-05-10T11:16:13;100211.47;;;17.78;22.79
50672;BME280;46021;55.882;37.654;2023-05-10T11:18:41;100208.22;;;17.72;22.69
50672;BME280;46021;55.882;37.654;2023-05-10T11:21:19;100206.66;;;17.86;22.73
50672;BME280;46021;55.882;37.654;2023-05-10T11:23:51;100207.03;;;17.78;22.93
50672;BME280;46021;55.882;37.654;2023-05-10T11:26:21;100199.44;;;17.89;23.57
50672;BME280;46021;55.882;37.654;2023-05-10T11:28:52;100192.13;;;17.95;23.43
50672;BME280;46021;55.882;37.654;2023-05-10T11:31:20;100201.75;;;17.78;22.96
50672;BME280;46021;55.882;37.654;2023-05-10T11:33:48;100187.50;;;17.49;23.20
50672;BME280;46021;55.882;37.654;2023-05-10T11:36:17;100199.94;;;17.63;23.20
50672;BME280;46021;55.882;37.654;2023-05-10T11:38:46;100196.69;;;17.75;23.43
50672;BME280;46021;55.882;37.654;2023-05-10T11:41:16;100185.63;;;17.84;24.48
50672;BME280;46021;55.882;37.654;2023-05-10T11:43:46;100184.38;;;17.91;23.80
50672;BME280;46021;55.882;37.654;2023-05-10T11:46:15;100181.91;;;17.88;24.04
50672;BME280;46021;55.882;37.654;2023-05-10T11:48:42;100188.66;;;17.94;23.69
50672;BME280;46021;55.882;37.654;2023-05-10T11:51:10;100177.94;;;17.64;23.33
50672;BME280;46021;55.882;37.654;2023-05-10T11:53:38;100184.97;;;17.63;23.65
50672;BME280;46021;55.882;37.654;2023-05-10T11:56:08;100188.59;;;17.45;23.78
50672;BME280;46021;55.882;37.654;2023-05-10T11:58:36;100179.31;;;17.38;24.08
50672;BME280;46021;55.882;37.654;2023-05-10T12:01:04;100181.16;;;17.36;24.16
50672;BME280;46021;55.882;37.654;2023-05-10T12:03:31;100177.06;;;17.30;23.90
50672;BME280;46021;55.882;37.654;2023-05-10T12:06:00;100171.19;;;17.25;24.30
50672;BME280;46021;55.882;37.654;2023-05-10T12:08:29;100167.00;;;17.21;24.08
50672;BME280;46021;55.882;37.654;2023-05-10T12:11:06;100166.06;;;17.22;23.85
50672;BME280;46021;55.882;37.654;2023-05-10T12:13:37;100170.63;;;17.18;24.21
50672;BME280;46021;55.882;37.654;2023-05-10T12:16:13;100170.25;;;17.08;24.23
50672;BME280;46021;55.882;37.654;2023-05-10T12:18:40;100165.63;;;16.96;24.48
50672;BME280;46021;55.882;37.654;2023-05-10T12:21:09;100171.19;;;16.90;24.71
50672;BME280;46021;55.882;37.654;2023-05-10T12:23:37;100168.06;;;16.82;24.90
50672;BME280;46021;55.882;37.654;2023-05-10T12:26:06;100159.06;;;16.68;24.28
50672;BME280;46021;55.882;37.654;2023-05-10T12:28:33;100164.00;;;16.57;24.65
50672;BME280;46021;55.882;37.654;2023-05-10T12:31:02;100160.59;;;16.55;25.04
50672;BME280;46021;55.882;37.654;2023-05-10T12:33:35;100152.59;;;16.39;25.08
50672;BME280;46021;55.882;37.654;2023-05-10T12:36:05;100155.72;;;16.47;25.21
50672;BME280;46021;55.882;37.654;2023-05-10T12:38:33;100146.53;;;16.56;25.66
50672;BME280;46021;55.882;37.654;2023-05-10T12:41:02;100149.63;;;16.64;24.96
50672;BME280;46021;55.882;37.654;2023-05-10T12:43:31;100153.47;;;16.74;24.85
50672;BME280;46021;55.882;37.654;2023-05-10T12:45:59;100137.22;;;16.66;24.73
50672;BME280;46021;55.882;37.654;2023-05-10T12:48:30;100143.06;;;16.73;25.58
50672;BME280;46021;55.882;37.654;2023-05-10T12:50:59;100150.06;;;16.55;25.19
50672;BME280;46021;55.882;37.654;2023-05-10T12:53:26;100142.03;;;16.58;25.48
50672;BME280;46021;55.882;37.654;2023-05-10T12:55:53;100146.22;;;16.62;25.02